Time;durP1;ratioP1;P1;durP2;ratioP2;P2;SDS_P1;SDS_P2;PMS_P1;PMS_P2;Temp;Humidity;BMP_temperature;BMP_pressure;BME280_temperature;BME280_humidity;BME280_pressure;Samples;Min_cycle;Max_cycle;Signal;HPM_P1;HPM_P2
2022/05/16 00:02:01;;;;;;;6.20;2.40;;;;;;;;;;5073713;28;20306;-66
2022/05/16 00:04:26;;;;;;;3.83;2.87;;;;;;;;;;5073833;28;20264;-66
2022/05/16 00:06:52;;;;;;;4.03;2.60;;;;;;;;;;5055537;28;20217;-66
2022/05/16 00:09:18;;;;;;;5.53;2.80;;;;;;;;;;5073446;28;20660;-66
2022/05/16 00:11:44;;;;;;;3.53;2.23;;;;;;;;;;5073309;28;20174;-66
2022/05/16 00:14:10;;;;;;;5.00;2.77;;;;;;;;;;5073604;28;20184;-66
2022/05/16 00:16:37;;;;;;;2.50;2.27;;;;;;;;;;5055532;28;20244;-66
2022/05/16 00:19:03;;;;;;;4.07;2.90;;;;;;;;;;5073980;28;20618;-65
2022/05/16 00:21:29;;;;;;;4.83;2.47;;;;;;;;;;5055543;28;20181;-65
2022/05/16 00:23:55;;;;;;;4.93;2.63;;;;;;;;;;5074143;28;20270;-66
2022/05/16 00:26:21;;;;;;;3.43;2.70;;;;;;;;;;5056355;28;20235;-66
2022/05/16 00:28:47;;;;;;;3.27;2.70;;;;;;;;;;5073278;28;20174;-66
2022/05/16 00:31:14;;;;;;;3.77;2.70;;;;;;;;;;5073506;28;20562;-66
2022/05/16 00:33:41;;;;;;;4.13;2.43;;;;;;;;;;5073174;28;20201;-66
2022/05/16 00:36:07;;;;;;;2.87;2.67;;;;;;;;;;5073181;28;20173;-66
2022/05/16 00:38:33;;;;;;;4.27;3.10;;;;;;;;;;5073385;28;20197;-66
2022/05/16 00:41:00;;;;;;;4.87;2.77;;;;;;;;;;5055113;28;20174;-66
2022/05/16 00:44:01;;;;;;;3.30;2.80;;;;;;;;;;5072991;28;20578;-66
2022/05/16 00:46:29;;;;;;;4.00;2.83;;;;;;;;;;4991726;28;20254;-67
2022/05/16 00:48:55;;;;;;;7.10;2.90;;;;;;;;;;5057747;28;20207;-66
2022/05/16 00:51:30;;;;;;;3.23;2.50;;;;;;;;;;5073066;28;20174;-66
2022/05/16 00:53:58;;;;;;;4.23;2.97;;;;;;;;;;5058401;28;20188;-66
2022/05/16 00:56:25;;;;;;;3.83;2.30;;;;;;;;;;5058902;28;20239;-66
2022/05/16 00:58:51;;;;;;;7.27;3.00;;;;;;;;;;5077077;28;20178;-66
2022/05/16 01:06:48;;;;;;;6.17;2.70;;;;;;;;;;5077456;28;20201;-66
2022/05/16 01:09:14;;;;;;;4.53;2.70;;;;;;;;;;5076798;28;20696;-66
2022/05/16 01:11:40;;;;;;;3.27;2.90;;;;;;;;;;5076714;28;20181;-65
2022/05/16 01:14:06;;;;;;;3.13;2.73;;;;;;;;;;5076939;28;20174;-66
2022/05/16 01:16:33;;;;;;;3.27;2.57;;;;;;;;;;5058677;28;20243;-66
2022/05/16 01:18:59;;;;;;;6.27;3.10;;;;;;;;;;5058582;28;20276;-66
2022/05/16 01:21:34;;;;;;;5.00;3.20;;;;;;;;;;5076533;28;20205;-64
2022/05/16 01:24:08;;;;;;;3.13;2.13;;;;;;;;;;5076697;28;20179;-66
2022/05/16 01:26:34;;;;;;;4.60;3.33;;;;;;;;;;5058518;28;20186;-66
2022/05/16 01:29:00;;;;;;;3.33;2.83;;;;;;;;;;5058401;28;20642;-65
2022/05/16 01:31:27;;;;;;;3.90;3.10;;;;;;;;;;5058544;28;20207;-66
2022/05/16 01:33:53;;;;;;;3.40;2.93;;;;;;;;;;5076253;28;20246;-66
2022/05/16 01:36:19;;;;;;;3.93;2.90;;;;;;;;;;5076573;28;20174;-66
2022/05/16 01:38:45;;;;;;;4.27;3.10;;;;;;;;;;5076617;28;20174;-66
2022/05/16 01:41:12;;;;;;;3.90;3.00;;;;;;;;;;5076167;28;20166;-66
2022/05/16 01:43:40;;;;;;;6.17;3.03;;;;;;;;;;5076103;28;20198;-66
2022/05/16 01:46:07;;;;;;;4.17;2.87;;;;;;;;;;5076349;28;20166;-66
2022/05/16 01:48:34;;;;;;;4.70;2.60;;;;;;;;;;5076319;28;20186;-66
2022/05/16 01:51:01;;;;;;;3.53;3.23;;;;;;;;;;5057986;28;20178;-66
2022/05/16 01:53:27;;;;;;;3.30;3.00;;;;;;;;;;5058042;28;20202;-66
2022/05/16 01:55:53;;;;;;;4.37;2.80;;;;;;;;;;5075854;28;20177;-66
2022/05/16 01:58:19;;;;;;;6.70;3.30;;;;;;;;;;5057837;28;20205;-66
2022/05/16 02:00:45;;;;;;;4.17;3.13;;;;;;;;;;5076013;28;20204;-66
2022/05/16 02:03:11;;;;;;;5.50;3.40;;;;;;;;;;5075647;28;20213;-66
2022/05/16 02:05:37;;;;;;;5.47;3.37;;;;;;;;;;5076286;28;20174;-66
2022/05/16 02:08:04;;;;;;;6.33;3.83;;;;;;;;;;5075769;28;20173;-66
2022/05/16 02:10:30;;;;;;;5.57;3.20;;;;;;;;;;5057787;28;20182;-66
2022/05/16 02:12:57;;;;;;;6.03;3.30;;;;;;;;;;5075935;28;20201;-66
2022/05/16 02:15:24;;;;;;;7.43;3.50;;;;;;;;;;5058117;28;20601;-66
2022/05/16 02:17:50;;;;;;;5.20;4.43;;;;;;;;;;5057832;28;20201;-66
2022/05/16 02:20:16;;;;;;;5.07;3.47;;;;;;;;;;5057888;28;20178;-66
2022/05/16 02:25:27;;;;;;;5.17;4.00;;;;;;;;;;5076095;28;20209;-66
2022/05/16 02:27:54;;;;;;;3.70;3.10;;;;;;;;;;5075506;28;20206;-66
2022/05/16 02:30:21;;;;;;;4.23;3.43;;;;;;;;;;5075211;28;20178;-66
2022/05/16 02:32:47;;;;;;;4.50;3.13;;;;;;;;;;5057232;28;20577;-66
2022/05/16 02:35:13;;;;;;;3.13;2.83;;;;;;;;;;5075537;28;20192;-67
2022/05/16 02:37:39;;;;;;;3.63;3.07;;;;;;;;;;5057103;28;20205;-66
2022/05/16 02:40:06;;;;;;;4.53;3.33;;;;;;;;;;5075156;28;20668;-66
2022/05/16 02:42:32;;;;;;;4.63;3.40;;;;;;;;;;5057071;28;20208;-66
2022/05/16 02:44:58;;;;;;;4.23;3.60;;;;;;;;;;5056919;28;20178;-66
2022/05/16 02:47:24;;;;;;;9.43;3.30;;;;;;;;;;5075019;28;20178;-66
2022/05/16 02:49:51;;;;;;;4.00;3.50;;;;;;;;;;5074869;28;20224;-66
2022/05/16 02:52:17;;;;;;;5.60;3.50;;;;;;;;;;5074788;28;20643;-66
2022/05/16 02:54:43;;;;;;;4.27;3.30;;;;;;;;;;5075076;28;20209;-66
2022/05/16 02:57:09;;;;;;;4.60;3.37;;;;;;;;;;5056778;28;20248;-66
2022/05/16 02:59:37;;;;;;;5.00;3.70;;;;;;;;;;5074804;28;20664;-66
2022/05/16 03:02:04;;;;;;;6.33;3.50;;;;;;;;;;5074552;28;20205;-66
2022/05/16 03:04:31;;;;;;;4.03;3.33;;;;;;;;;;5074770;28;20533;-66
2022/05/16 03:06:57;;;;;;;7.60;3.97;;;;;;;;;;5074601;28;20189;-66
2022/05/16 03:09:24;;;;;;;5.17;3.63;;;;;;;;;;5074448;28;20188;-66
2022/05/16 03:11:50;;;;;;;6.07;3.77;;;;;;;;;;5074333;28;20260;-65
2022/05/16 03:14:16;;;;;;;6.00;3.87;;;;;;;;;;5056464;28;20532;-66
2022/05/16 03:16:42;;;;;;;6.47;3.90;;;;;;;;;;5073668;28;20198;-66
2022/05/16 03:19:08;;;;;;;5.83;3.50;;;;;;;;;;5074209;28;20174;-66
2022/05/16 03:21:34;;;;;;;6.70;3.83;;;;;;;;;;5074104;28;20200;-66
2022/05/16 03:24:00;;;;;;;4.53;3.60;;;;;;;;;;5074703;28;20178;-65
2022/05/16 03:26:26;;;;;;;5.60;3.73;;;;;;;;;;5056631;28;20174;-66
2022/05/16 03:28:53;;;;;;;4.67;3.73;;;;;;;;;;5074573;28;20220;-66
2022/05/16 03:31:19;;;;;;;4.63;3.87;;;;;;;;;;5056175;28;20216;-66
2022/05/16 03:33:45;;;;;;;3.90;3.50;;;;;;;;;;5074195;28;20222;-66
2022/05/16 03:36:11;;;;;;;4.37;3.80;;;;;;;;;;5074359;28;20181;-66
2022/05/16 03:41:22;;;;;;;5.17;3.80;;;;;;;;;;5074378;28;20581;-66
2022/05/16 03:43:49;;;;;;;8.63;3.90;;;;;;;;;;5073759;28;20216;-66
2022/05/16 03:46:15;;;;;;;4.80;3.77;;;;;;;;;;5055898;28;20220;-66
2022/05/16 03:48:41;;;;;;;4.40;3.60;;;;;;;;;;5055720;28;20186;-67
2022/05/16 03:51:08;;;;;;;5.27;4.00;;;;;;;;;;5055933;28;20182;-66
2022/05/16 03:53:36;;;;;;;4.87;4.33;;;;;;;;;;5073503;28;20209;-66
2022/05/16 03:56:03;;;;;;;4.90;3.80;;;;;;;;;;5073610;28;20178;-66
2022/05/16 03:58:29;;;;;;;5.70;4.17;;;;;;;;;;5073463;28;20251;-66
2022/05/16 04:00:55;;;;;;;4.83;3.70;;;;;;;;;;5074093;28;20533;-66
2022/05/16 04:03:21;;;;;;;5.03;3.80;;;;;;;;;;5073382;28;20206;-66
2022/05/16 04:05:47;;;;;;;6.03;3.90;;;;;;;;;;5073955;28;20652;-66
2022/05/16 04:08:13;;;;;;;7.20;4.30;;;;;;;;;;5073347;28;20630;-66
2022/05/16 04:10:39;;;;;;;5.03;3.70;;;;;;;;;;5073884;28;20188;-66
2022/05/16 04:13:05;;;;;;;5.50;4.07;;;;;;;;;;5055328;28;20283;-66
2022/05/16 04:15:32;;;;;;;4.30;3.90;;;;;;;;;;5088754;22;20234;-65
2022/05/16 04:17:58;;;;;;;5.70;4.20;;;;;;;;;;5035425;28;20206;-63
2022/05/16 04:20:24;;;;;;;7.50;4.17;;;;;;;;;;5035556;28;20182;-64
2022/05/16 04:22:50;;;;;;;5.10;4.60;;;;;;;;;;5053302;28;20249;-64
2022/05/16 04:25:17;;;;;;;6.63;3.97;;;;;;;;;;5053450;28;20198;-63
2022/05/16 04:27:43;;;;;;;5.10;3.77;;;;;;;;;;5052638;28;20206;-64
2022/05/16 04:30:10;;;;;;;4.73;3.87;;;;;;;;;;5035363;28;20225;-63
2022/05/16 04:32:36;;;;;;;6.50;4.20;;;;;;;;;;5035347;28;20178;-64
2022/05/16 04:35:02;;;;;;;5.03;4.03;;;;;;;;;;5035143;28;20210;-64
2022/05/16 04:37:32;;;;;;;7.00;4.10;;;;;;;;;;5035315;28;20210;-64
2022/05/16 04:39:58;;;;;;;6.03;4.27;;;;;;;;;;5053760;28;20592;-64
2022/05/16 04:45:09;;;;;;;4.57;4.10;;;;;;;;;;5053601;28;20205;-64
2022/05/16 04:47:35;;;;;;;4.30;3.87;;;;;;;;;;5053599;28;20193;-64
2022/05/16 04:50:01;;;;;;;6.70;4.57;;;;;;;;;;5053074;28;20182;-64
2022/05/16 04:52:28;;;;;;;7.23;4.17;;;;;;;;;;5053294;28;20189;-64
2022/05/16 04:54:54;;;;;;;6.63;4.73;;;;;;;;;;5053104;28;20198;-64
2022/05/16 04:57:20;;;;;;;5.87;4.17;;;;;;;;;;5035086;28;20763;-64
2022/05/16 04:59:49;;;;;;;5.83;4.10;;;;;;;;;;5035014;28;20529;-64
2022/05/16 05:02:16;;;;;;;6.20;4.47;;;;;;;;;;5052805;28;20220;-64
2022/05/16 05:04:42;;;;;;;4.47;4.07;;;;;;;;;;5034769;28;20670;-64
2022/05/16 05:07:08;;;;;;;6.03;4.03;;;;;;;;;;5053226;28;20186;-64
2022/05/16 05:14:31;;;;;;;6.90;4.20;;;;;;;;;;5053356;28;20708;-64
2022/05/16 05:15:05;;;;;;;5.97;4.33;;;;;;;;;;5052876;28;20287;-66
2022/05/16 05:17:32;;;;;;;6.80;4.40;;;;;;;;;;5035423;28;20203;-65
2022/05/16 05:19:58;;;;;;;4.63;4.00;;;;;;;;;;5052775;28;20182;-64
2022/05/16 05:22:24;;;;;;;3.47;3.17;;;;;;;;;;5034917;28;20174;-65
2022/05/16 05:24:50;;;;;;;6.37;3.37;;;;;;;;;;5052641;28;20266;-65
2022/05/16 05:27:16;;;;;;;5.80;3.47;;;;;;;;;;5053072;28;20178;-65
2022/05/16 05:29:42;;;;;;;10.60;3.70;;;;;;;;;;5052610;28;20190;-65
2022/05/16 05:32:09;;;;;;;6.30;3.60;;;;;;;;;;5052878;28;20186;-65
2022/05/16 05:34:35;;;;;;;4.40;3.63;;;;;;;;;;5034762;28;20198;-65
2022/05/16 05:37:01;;;;;;;3.67;2.97;;;;;;;;;;5052794;28;20213;-65
2022/05/16 05:39:27;;;;;;;4.97;3.33;;;;;;;;;;5036873;28;20555;-65
2022/05/16 05:41:53;;;;;;;3.87;3.10;;;;;;;;;;5056776;28;20187;-66
2022/05/16 05:44:19;;;;;;;3.30;3.00;;;;;;;;;;5056373;28;20662;-65
2022/05/16 05:46:46;;;;;;;4.20;3.10;;;;;;;;;;5056619;28;20265;-65
2022/05/16 05:49:12;;;;;;;5.90;3.30;;;;;;;;;;5056241;28;20179;-65
2022/05/16 05:51:38;;;;;;;3.70;2.70;;;;;;;;;;5038263;28;20178;-65
2022/05/16 05:54:05;;;;;;;5.40;3.17;;;;;;;;;;5056559;28;20203;-64
2022/05/16 05:56:31;;;;;;;5.27;3.27;;;;;;;;;;5056085;28;20190;-66
2022/05/16 05:58:57;;;;;;;4.87;3.50;;;;;;;;;;5056180;28;20175;-66
2022/05/16 06:01:23;;;;;;;11.33;6.33;;;;;;;;;;5056411;28;20182;-65
2022/05/16 06:03:49;;;;;;;10.23;4.97;;;;;;;;;;5055771;28;20179;-65
2022/05/16 06:06:15;;;;;;;9.33;4.60;;;;;;;;;;5038336;28;20186;-65
2022/05/16 06:08:41;;;;;;;6.30;3.43;;;;;;;;;;5055856;28;20174;-65
2022/05/16 06:11:07;;;;;;;5.50;3.37;;;;;;;;;;5055716;28;20185;-64
2022/05/16 06:13:33;;;;;;;6.10;4.10;;;;;;;;;;5055606;28;20236;-66
2022/05/16 06:15:59;;;;;;;6.30;3.77;;;;;;;;;;5055533;28;20222;-65
2022/05/16 06:18:25;;;;;;;4.33;3.13;;;;;;;;;;5055439;28;20202;-65
2022/05/16 06:20:52;;;;;;;4.93;3.37;;;;;;;;;;5055995;28;20262;-65
2022/05/16 06:23:18;;;;;;;5.73;3.37;;;;;;;;;;5055806;28;20178;-65
2022/05/16 06:25:44;;;;;;;6.27;3.30;;;;;;;;;;5055419;28;20663;-64
2022/05/16 06:28:12;;;;;;;5.17;2.80;;;;;;;;;;5037560;28;20178;-66
2022/05/16 06:30:39;;;;;;;6.10;3.20;;;;;;;;;;5055628;28;20269;-67
2022/05/16 06:33:05;;;;;;;3.97;3.00;;;;;;;;;;5055488;28;20189;-68
2022/05/16 06:35:32;;;;;;;3.40;2.57;;;;;;;;;;5055169;28;20225;-67
2022/05/16 06:38:04;;;;;;;3.80;3.07;;;;;;;;;;5037401;28;20630;-66
2022/05/16 06:40:30;;;;;;;3.23;2.40;;;;;;;;;;5055719;28;20162;-65
2022/05/16 06:42:56;;;;;;;2.43;2.23;;;;;;;;;;5037600;28;20183;-65
2022/05/16 06:45:22;;;;;;;2.73;2.37;;;;;;;;;;5055144;28;20198;-66
2022/05/16 06:47:48;;;;;;;4.43;2.20;;;;;;;;;;5055497;28;20236;-67
2022/05/16 06:50:14;;;;;;;2.70;2.33;;;;;;;;;;5036456;28;20240;-65
2022/05/16 06:52:40;;;;;;;4.50;2.67;;;;;;;;;;5055267;28;20179;-67
2022/05/16 06:55:06;;;;;;;3.97;2.27;;;;;;;;;;5037228;28;20202;-65
2022/05/16 06:57:33;;;;;;;3.00;2.50;;;;;;;;;;5054866;28;20686;-65
2022/05/16 06:59:59;;;;;;;5.17;2.83;;;;;;;;;;5037295;28;20662;-65
2022/05/16 07:02:25;;;;;;;3.83;2.60;;;;;;;;;;5055112;28;20253;-65
2022/05/16 07:04:52;;;;;;;7.40;3.60;;;;;;;;;;5055010;28;20225;-65
2022/05/16 07:07:18;;;;;;;5.53;3.07;;;;;;;;;;5055196;28;20551;-66
2022/05/16 07:09:44;;;;;;;4.87;3.13;;;;;;;;;;5037294;28;20273;-66
2022/05/16 07:12:10;;;;;;;6.70;3.70;;;;;;;;;;5055161;28;20179;-65
2022/05/16 07:14:38;;;;;;;6.13;3.77;;;;;;;;;;5055042;28;20305;-65
2022/05/16 07:17:04;;;;;;;8.87;3.67;;;;;;;;;;5038048;28;20579;-66
2022/05/16 07:19:31;;;;;;;6.17;3.47;;;;;;;;;;5056077;28;20222;-65
2022/05/16 07:21:57;;;;;;;5.00;2.83;;;;;;;;;;5056707;28;20277;-65
2022/05/16 07:24:23;;;;;;;4.10;2.50;;;;;;;;;;5054840;28;20203;-67
2022/05/16 07:29:34;;;;;;;4.87;2.83;;;;;;;;;;5054446;28;20173;-66
2022/05/16 07:32:00;;;;;;;5.47;3.30;;;;;;;;;;5054321;28;20183;-65
2022/05/16 07:34:26;;;;;;;4.57;2.90;;;;;;;;;;5054125;28;20289;-65
2022/05/16 07:36:52;;;;;;;2.17;1.97;;;;;;;;;;5054199;28;20235;-65
2022/05/16 07:39:18;;;;;;;5.40;2.53;;;;;;;;;;5054464;28;20645;-67
2022/05/16 07:41:44;;;;;;;4.83;2.90;;;;;;;;;;5054099;28;20257;-65
2022/05/16 07:44:10;;;;;;;4.90;2.63;;;;;;;;;;5054029;28;20194;-67
2022/05/16 07:46:36;;;;;;;3.80;3.40;;;;;;;;;;5036186;28;20178;-67
2022/05/16 07:49:02;;;;;;;5.83;3.00;;;;;;;;;;5054037;28;20175;-65
2022/05/16 07:51:28;;;;;;;3.80;2.90;;;;;;;;;;5036217;28;20182;-65
2022/05/16 07:53:55;;;;;;;6.00;3.27;;;;;;;;;;5054311;28;20185;-65
2022/05/16 07:56:21;;;;;;;6.33;3.37;;;;;;;;;;5054953;28;20202;-66
2022/05/16 07:58:47;;;;;;;4.13;2.70;;;;;;;;;;5054080;28;20670;-68
2022/05/16 08:01:13;;;;;;;8.80;3.20;;;;;;;;;;5053869;28;20182;-68
2022/05/16 08:03:39;;;;;;;5.93;2.77;;;;;;;;;;5054593;28;20175;-68
2022/05/16 08:06:05;;;;;;;4.47;3.23;;;;;;;;;;5053943;28;20178;-64
2022/05/16 08:11:15;;;;;;;3.97;3.00;;;;;;;;;;5054222;28;20549;-65
2022/05/16 08:13:42;;;;;;;3.83;3.13;;;;;;;;;;5053376;28;20174;-66
2022/05/16 08:16:08;;;;;;;6.90;3.70;;;;;;;;;;5053863;28;20197;-65
2022/05/16 08:18:34;;;;;;;3.57;2.90;;;;;;;;;;5035580;28;20682;-66
2022/05/16 08:21:00;;;;;;;6.20;3.83;;;;;;;;;;5053920;28;20170;-65
2022/05/16 08:23:28;;;;;;;4.77;3.27;;;;;;;;;;5054057;28;20175;-66
2022/05/16 08:25:55;;;;;;;5.00;3.83;;;;;;;;;;5053438;28;20197;-66
2022/05/16 08:28:22;;;;;;;6.87;3.90;;;;;;;;;;5053426;28;20175;-65
2022/05/16 08:30:48;;;;;;;7.13;4.13;;;;;;;;;;5035618;28;20236;-65
2022/05/16 08:33:14;;;;;;;6.23;4.53;;;;;;;;;;5035391;28;20273;-65
2022/05/16 08:35:40;;;;;;;7.30;5.20;;;;;;;;;;5035350;28;20234;-65
2022/05/16 08:40:57;;;;;;;4.57;3.70;;;;;;;;;;5053855;28;20220;-68
2022/05/16 08:43:32;;;;;;;6.57;4.00;;;;;;;;;;5053784;28;20178;-71
2022/05/16 08:46:02;;;;;;;5.67;3.60;;;;;;;;;;5053974;28;20194;-67
2022/05/16 08:48:36;;;;;;;7.10;4.07;;;;;;;;;;5053734;28;20161;-67
2022/05/16 08:51:04;;;;;;;7.43;3.60;;;;;;;;;;5053908;28;20661;-65
2022/05/16 08:53:42;;;;;;;9.67;4.70;;;;;;;;;;5053500;28;20175;-66
2022/05/16 08:56:09;;;;;;;9.77;5.13;;;;;;;;;;5035362;28;20186;-66
2022/05/16 08:58:41;;;;;;;6.77;4.37;;;;;;;;;;5035289;28;20209;-66
2022/05/16 09:01:25;;;;;;;8.67;4.40;;;;;;;;;;5053454;28;20175;-66
2022/05/16 09:03:57;;;;;;;9.67;5.30;;;;;;;;;;5053237;28;20169;-65
2022/05/16 09:06:26;;;;;;;6.10;4.00;;;;;;;;;;5053148;28;20170;-65
2022/05/16 09:08:55;;;;;;;4.37;3.50;;;;;;;;;;5053589;28;20217;-65
2022/05/16 09:11:27;;;;;;;10.07;4.27;;;;;;;;;;5053688;28;20639;-65
2022/05/16 09:14:19;;;;;;;4.77;3.23;;;;;;;;;;5055416;28;20178;-65
2022/05/16 09:16:45;;;;;;;6.77;4.10;;;;;;;;;;5054992;28;20277;-66
2022/05/16 09:19:17;;;;;;;11.73;5.47;;;;;;;;;;5058847;28;20269;-66
2022/05/16 09:21:43;;;;;;;11.63;7.73;;;;;;;;;;5059457;28;20174;-66
2022/05/16 09:24:15;;;;;;;8.43;5.43;;;;;;;;;;5040703;28;20201;-64
2022/05/16 09:26:40;;;;;;;5.47;4.43;;;;;;;;;;5057162;28;20707;-64
2022/05/16 09:29:18;;;;;;;6.63;4.70;;;;;;;;;;5056615;28;20226;-64
2022/05/16 09:31:48;;;;;;;7.40;4.63;;;;;;;;;;5056579;28;20253;-64
2022/05/16 09:34:15;;;;;;;8.40;4.27;;;;;;;;;;5056758;28;20195;-64
2022/05/16 09:36:43;;;;;;;9.67;5.07;;;;;;;;;;5057013;28;20175;-64
2022/05/16 09:39:10;;;;;;;5.13;4.20;;;;;;;;;;5056571;28;20198;-64
2022/05/16 09:41:40;;;;;;;9.87;4.90;;;;;;;;;;5056372;28;20171;-64
2022/05/16 09:44:11;;;;;;;5.13;2.97;;;;;;;;;;5057721;28;20277;-65
2022/05/16 09:46:39;;;;;;;7.00;4.17;;;;;;;;;;5056370;28;20201;-65
2022/05/16 09:49:19;;;;;;;4.73;3.63;;;;;;;;;;5038781;28;20179;-64
2022/05/16 09:51:48;;;;;;;8.07;3.83;;;;;;;;;;5056922;28;20171;-63
2022/05/16 09:54:23;;;;;;;3.70;3.20;;;;;;;;;;5056233;28;20201;-63
2022/05/16 09:56:55;;;;;;;3.10;2.87;;;;;;;;;;5056214;28;20175;-63
2022/05/16 09:59:35;;;;;;;5.67;3.13;;;;;;;;;;5056868;28;20185;-64
2022/05/16 10:02:27;;;;;;;5.73;2.87;;;;;;;;;;5038995;28;20270;-64
2022/05/16 10:04:56;;;;;;;3.63;2.80;;;;;;;;;;5018934;28;20285;-64
2022/05/16 10:07:24;;;;;;;8.37;3.77;;;;;;;;;;5038593;28;20190;-64
2022/05/16 10:09:52;;;;;;;4.10;3.37;;;;;;;;;;5056343;28;20170;-64
2022/05/16 10:12:19;;;;;;;4.53;3.50;;;;;;;;;;5037955;28;20183;-64
2022/05/16 10:14:46;;;;;;;6.40;3.60;;;;;;;;;;5055531;28;20300;-64
2022/05/16 10:17:14;;;;;;;4.70;3.23;;;;;;;;;;5055846;28;20705;-64
2022/05/16 10:19:41;;;;;;;6.53;3.60;;;;;;;;;;5055928;28;20323;-64
2022/05/16 10:22:18;;;;;;;6.07;4.47;;;;;;;;;;5055660;28;20206;-65
2022/05/16 10:24:46;;;;;;;3.73;3.33;;;;;;;;;;5055521;28;20190;-64
2022/05/16 10:27:13;;;;;;;4.10;3.30;;;;;;;;;;5055472;28;20185;-65
2022/05/16 10:29:42;;;;;;;5.23;3.93;;;;;;;;;;5037553;28;20269;-64
2022/05/16 10:35:19;;;;;;;3.77;3.33;;;;;;;;;;5055817;28;20225;-65
2022/05/16 10:37:47;;;;;;;4.30;3.70;;;;;;;;;;5055788;28;20233;-65
2022/05/16 10:40:21;;;;;;;4.03;2.80;;;;;;;;;;5037682;28;20178;-65
2022/05/16 10:42:50;;;;;;;4.47;3.33;;;;;;;;;;5055348;28;20201;-63
2022/05/16 10:45:21;;;;;;;5.50;2.93;;;;;;;;;;5079042;22;20226;-65
2022/05/16 10:47:51;;;;;;;9.03;3.40;;;;;;;;;;5075243;28;20185;-65
2022/05/16 10:50:34;;;;;;;4.17;3.20;;;;;;;;;;5057148;28;20269;-66
2022/05/16 10:53:06;;;;;;;3.40;2.93;;;;;;;;;;5075327;28;20174;-66
2022/05/16 10:55:39;;;;;;;4.10;3.40;;;;;;;;;;5074992;28;20197;-65
2022/05/16 10:58:05;;;;;;;3.47;2.87;;;;;;;;;;5075058;28;20194;-65
2022/05/16 11:00:34;;;;;;;3.53;2.80;;;;;;;;;;5056919;28;20232;-65
2022/05/16 11:03:03;;;;;;;2.43;2.23;;;;;;;;;;5074991;28;20182;-65
2022/05/16 11:05:39;;;;;;;3.63;2.97;;;;;;;;;;5074573;28;20629;-65
2022/05/16 11:08:24;;;;;;;2.67;2.47;;;;;;;;;;5056698;28;20265;-65
2022/05/16 11:10:59;;;;;;;3.47;2.70;;;;;;;;;;5075046;28;20169;-66
2022/05/16 11:13:44;;;;;;;4.03;2.60;;;;;;;;;;5056749;28;20260;-66
2022/05/16 11:16:18;;;;;;;3.97;2.43;;;;;;;;;;5056484;28;20194;-65
2022/05/16 11:18:56;;;;;;;4.03;2.47;;;;;;;;;;5074685;28;20637;-65
2022/05/16 11:21:22;;;;;;;4.23;2.57;;;;;;;;;;5074711;28;20153;-65
2022/05/16 11:23:51;;;;;;;4.27;3.00;;;;;;;;;;5056529;28;20209;-65
2022/05/16 11:26:21;;;;;;;2.80;2.60;;;;;;;;;;5074357;28;20564;-65
2022/05/16 11:29:19;;;;;;;3.33;2.37;;;;;;;;;;5056403;28;20178;-65
2022/05/16 11:32:00;;;;;;;3.70;2.47;;;;;;;;;;5056487;28;20170;-65
2022/05/16 11:34:30;;;;;;;3.10;2.80;;;;;;;;;;5074150;28;20177;-65
2022/05/16 11:36:59;;;;;;;4.18;3.10;;;;;;;;;;5073994;28;20186;-66
2022/05/16 11:39:25;;;;;;;2.93;2.60;;;;;;;;;;5056152;28;20186;-65
2022/05/16 11:41:51;;;;;;;5.43;2.90;;;;;;;;;;5074242;28;20177;-65
2022/05/16 11:44:27;;;;;;;5.33;3.23;;;;;;;;;;5073944;28;20182;-65
2022/05/16 11:46:57;;;;;;;3.87;3.00;;;;;;;;;;5074431;28;20185;-65
2022/05/16 11:49:44;;;;;;;3.30;3.00;;;;;;;;;;5074053;28;20162;-65
2022/05/16 11:52:13;;;;;;;3.23;2.93;;;;;;;;;;5073658;28;20246;-67
2022/05/16 11:54:40;;;;;;;3.53;3.07;;;;;;;;;;5055794;28;20208;-66
2022/05/16 12:02:47;;;;;;;3.67;2.80;;;;;;;;;;5073971;28;20219;-66
2022/05/16 12:05:20;;;;;;;3.70;3.30;;;;;;;;;;5055657;28;20193;-65
2022/05/16 12:07:47;;;;;;;2.87;2.67;;;;;;;;;;5073679;28;20178;-65
2022/05/16 12:10:15;;;;;;;5.00;2.80;;;;;;;;;;5073386;28;20186;-65
2022/05/16 12:12:41;;;;;;;9.30;3.73;;;;;;;;;;5073830;28;20664;-66
2022/05/16 12:15:07;;;;;;;4.03;2.60;;;;;;;;;;5073255;28;20289;-65
2022/05/16 12:17:34;;;;;;;6.23;3.30;;;;;;;;;;5073100;28;20202;-66
2022/05/16 12:20:09;;;;;;;5.67;3.40;;;;;;;;;;5055231;28;20188;-65
2022/05/16 12:22:35;;;;;;;4.83;3.07;;;;;;;;;;5073851;28;20158;-66
2022/05/16 12:25:32;;;;;;;6.00;3.87;;;;;;;;;;5055146;28;20336;-66
2022/05/16 12:28:30;;;;;;;3.73;3.37;;;;;;;;;;5053327;28;20193;-66
2022/05/16 12:30:57;;;;;;;9.60;4.93;;;;;;;;;;5054163;28;20190;-66
2022/05/16 12:33:23;;;;;;;5.93;4.20;;;;;;;;;;5073717;28;20264;-65
2022/05/16 12:35:51;;;;;;;6.87;4.53;;;;;;;;;;5073711;28;20280;-65
2022/05/16 12:38:19;;;;;;;4.50;3.87;;;;;;;;;;5073718;28;20200;-65
2022/05/16 12:41:04;;;;;;;4.60;3.70;;;;;;;;;;5073212;28;20178;-65
2022/05/16 12:43:30;;;;;;;5.50;3.90;;;;;;;;;;5055160;28;20188;-65
2022/05/16 12:46:09;;;;;;;6.57;3.93;;;;;;;;;;5054687;28;20677;-65
2022/05/16 12:48:35;;;;;;;6.87;4.20;;;;;;;;;;5074358;28;20165;-66
2022/05/16 12:51:14;;;;;;;5.33;4.20;;;;;;;;;;5077199;28;20182;-66
2022/05/16 12:53:56;;;;;;;4.70;4.30;;;;;;;;;;5077496;28;20200;-65
2022/05/16 12:56:28;;;;;;;5.10;4.57;;;;;;;;;;5076967;28;20197;-65
2022/05/16 12:59:03;;;;;;;6.77;4.87;;;;;;;;;;5058931;28;20201;-65
2022/05/16 13:01:42;;;;;;;4.57;4.17;;;;;;;;;;5059119;28;20166;-65
2022/05/16 13:04:21;;;;;;;5.17;4.67;;;;;;;;;;5058829;28;20649;-65
2022/05/16 13:06:49;;;;;;;5.40;4.50;;;;;;;;;;5076990;28;20618;-65
2022/05/16 13:09:25;;;;;;;6.83;5.33;;;;;;;;;;5076893;28;20638;-65
2022/05/16 13:11:59;;;;;;;6.50;4.43;;;;;;;;;;5076946;28;20172;-65
2022/05/16 13:14:42;;;;;;;5.87;4.87;;;;;;;;;;5077236;28;20170;-65
2022/05/16 13:17:10;;;;;;;4.87;4.20;;;;;;;;;;5077021;28;20190;-66
2022/05/16 13:19:41;;;;;;;5.33;4.60;;;;;;;;;;5076563;28;20170;-65
2022/05/16 13:22:10;;;;;;;4.77;4.13;;;;;;;;;;5076885;28;20163;-66
2022/05/16 13:24:37;;;;;;;6.67;4.57;;;;;;;;;;5076694;28;20205;-66
2022/05/16 13:29:50;;;;;;;4.77;4.37;;;;;;;;;;5076751;28;20177;-66
2022/05/16 13:32:17;;;;;;;8.83;4.80;;;;;;;;;;5076481;28;20256;-65
2022/05/16 13:34:45;;;;;;;5.70;3.77;;;;;;;;;;5076454;28;20213;-65
2022/05/16 13:37:12;;;;;;;5.53;4.07;;;;;;;;;;5076396;28;20300;-65
2022/05/16 13:39:43;;;;;;;3.87;3.47;;;;;;;;;;5058391;28;20637;-66
2022/05/16 13:42:09;;;;;;;4.37;3.97;;;;;;;;;;5076172;28;20174;-66
2022/05/16 13:44:45;;;;;;;5.80;4.57;;;;;;;;;;5076101;28;20233;-65
2022/05/16 13:47:12;;;;;;;7.57;4.73;;;;;;;;;;5076461;28;20172;-66
2022/05/16 13:49:40;;;;;;;5.67;4.60;;;;;;;;;;5058074;28;20211;-66
2022/05/16 13:52:06;;;;;;;8.57;5.40;;;;;;;;;;5076142;28;20182;-66
2022/05/16 13:54:34;;;;;;;5.77;5.00;;;;;;;;;;5076165;28;20201;-65
2022/05/16 13:57:01;;;;;;;5.63;5.03;;;;;;;;;;5058202;28;20638;-65
2022/05/16 13:59:30;;;;;;;5.83;4.70;;;;;;;;;;5075755;28;20189;-65
2022/05/16 14:02:10;;;;;;;7.13;5.13;;;;;;;;;;5076373;28;20181;-65
2022/05/16 14:04:38;;;;;;;8.80;5.60;;;;;;;;;;5076019;28;20224;-65
2022/05/16 14:07:25;;;;;;;6.00;4.73;;;;;;;;;;5076043;28;20181;-65
2022/05/16 14:09:56;;;;;;;8.43;5.17;;;;;;;;;;5057885;28;20645;-65
2022/05/16 14:12:28;;;;;;;8.07;5.30;;;;;;;;;;5057768;28;20188;-65
2022/05/16 14:14:55;;;;;;;5.40;4.90;;;;;;;;;;5075857;28;20193;-66
2022/05/16 14:17:47;;;;;;;4.87;4.37;;;;;;;;;;5076222;28;20262;-65
2022/05/16 14:20:16;;;;;;;4.97;4.30;;;;;;;;;;5045158;28;20227;-66
2022/05/16 14:22:44;;;;;;;4.50;4.10;;;;;;;;;;5057731;28;20174;-65
2022/05/16 14:25:12;;;;;;;5.40;4.00;;;;;;;;;;5075590;28;20200;-65
2022/05/16 14:27:56;;;;;;;6.40;4.00;;;;;;;;;;5075554;28;20209;-65
2022/05/16 14:30:24;;;;;;;7.67;4.70;;;;;;;;;;5075352;28;20173;-65
2022/05/16 14:32:51;;;;;;;6.60;4.30;;;;;;;;;;5075700;28;20178;-65
2022/05/16 14:35:26;;;;;;;5.73;4.43;;;;;;;;;;5057225;28;20232;-66
2022/05/16 14:37:53;;;;;;;5.37;4.07;;;;;;;;;;5075417;28;20216;-65
2022/05/16 14:40:19;;;;;;;8.73;5.00;;;;;;;;;;5075706;28;20652;-66
2022/05/16 14:42:46;;;;;;;5.63;4.83;;;;;;;;;;5057291;28;20205;-66
2022/05/16 14:46:42;;;;;;;6.83;6.13;;;;;;;;;;5056938;28;20209;-66
2022/05/16 14:48:07;;;;;;;7.73;5.60;;;;;;;;;;5074837;28;20237;-65
2022/05/16 14:50:33;;;;;;;7.60;6.50;;;;;;;;;;5075583;28;20170;-65
2022/05/16 14:53:14;;;;;;;7.70;6.90;;;;;;;;;;5074940;28;20247;-66
2022/05/16 14:55:47;;;;;;;7.60;6.80;;;;;;;;;;5074809;28;20243;-66
2022/05/16 14:58:14;;;;;;;7.80;7.00;;;;;;;;;;5075060;28;20189;-65
2022/05/16 15:06:10;;;;;;;9.73;8.73;;;;;;;;;;5074848;28;20247;-66
2022/05/16 15:08:45;;;;;;;12.00;8.47;;;;;;;;;;5074632;28;20178;-66
2022/05/16 15:11:11;;;;;;;9.07;8.07;;;;;;;;;;5055668;28;20177;-66
2022/05/16 15:13:38;;;;;;;8.73;7.13;;;;;;;;;;5074494;28;20182;-65
2022/05/16 15:16:04;;;;;;;9.17;8.20;;;;;;;;;;5056524;28;20670;-66
2022/05/16 15:18:30;;;;;;;8.07;7.27;;;;;;;;;;5074226;28;20198;-66
2022/05/16 15:20:58;;;;;;;9.90;7.70;;;;;;;;;;5074160;28;20259;-66
2022/05/16 15:23:24;;;;;;;9.07;7.27;;;;;;;;;;5074518;28;20178;-66
2022/05/16 15:25:52;;;;;;;7.60;6.80;;;;;;;;;;5056185;28;20201;-66
2022/05/16 15:28:18;;;;;;;8.47;6.93;;;;;;;;;;5074186;28;20250;-65
2022/05/16 15:30:44;;;;;;;7.73;7.03;;;;;;;;;;5074098;28;20263;-66
2022/05/16 15:33:12;;;;;;;7.50;6.80;;;;;;;;;;5074060;28;20182;-66
2022/05/16 15:35:38;;;;;;;8.23;7.43;;;;;;;;;;5055802;28;20286;-66